sensor_id;sensor_type;location;lat;lon;timestamp;P1;durP1;ratioP1;P2;durP2;ratioP2
15504;SDS011;7854;52.184;5.942;2022-11-04T00:03:00;10;;;9;;
15504;SDS011;7854;52.184;5.942;2022-11-04T00:04:02;11;;;10;;
15504;SDS011;7854;52.184;5.942;2022-11-04T00:06:16;14;;;13;;
15504;SDS011;7854;52.184;5.942;2022-11-04T00:08:30;18;;;15;;
15504;SDS011;7854;52.184;5.942;2022-11-04T00:10:45;13;;;12;;
15504;SDS011;7854;52.184;5.942;2022-11-04T00:13:00;12;;;11;;
15504;SDS011;7854;52.184;5.942;2022-11-04T00:15:14;11;;;11;;
15504;SDS011;7854;52.184;5.942;2022-11-04T00:17:28;16;;;15;;
15504;SDS011;7854;52.184;5.942;2022-11-04T00:19:43;15;;;13;;
15504;SDS011;7854;52.184;5.942;2022-11-04T00:21:57;14;;;13;;
15504;SDS011;7854;52.184;5.942;2022-11-04T00:24:12;12;;;10;;
15504;SDS011;7854;52.184;5.942;2022-11-04T00:26:26;13;;;12;;
15504;SDS011;7854;52.184;5.942;2022-11-04T00:28:41;12;;;9;;
15504;SDS011;7854;52.184;5.942;2022-11-04T00:30:56;10;;;10;;
15504;SDS011;7854;52.184;5.942;2022-11-04T00:33:09;10;;;9;;
15504;SDS011;7854;52.184;5.942;2022-11-04T00:35:24;13;;;10;;
15504;SDS011;7854;52.184;5.942;2022-11-04T00:37:39;14;;;12;;
15504;SDS011;7854;52.184;5.942;2022-11-04T00:39:53;12;;;11;;
15504;SDS011;7854;52.184;5.942;2022-11-04T00:42:07;12;;;11;;
15504;SDS011;7854;52.184;5.942;2022-11-04T00:44:22;11;;;10;;
15504;SDS011;7854;52.184;5.942;2022-11-04T00:46:36;15;;;12;;
15504;SDS011;7854;52.184;5.942;2022-11-04T00:48:50;17;;;14;;
15504;SDS011;7854;52.184;5.942;2022-11-04T00:51:05;12;;;12;;
15504;SDS011;7854;52.184;5.942;2022-11-04T00:53:20;16;;;14;;
15504;SDS011;7854;52.184;5.942;2022-11-04T00:55:34;13;;;12;;
15504;SDS011;7854;52.184;5.942;2022-11-04T00:57:48;17;;;15;;
15504;SDS011;7854;52.184;5.942;2022-11-04T01:00:08;28;;;18;;
15504;SDS011;7854;52.184;5.942;2022-11-04T01:02:17;16;;;14;;
15504;SDS011;7854;52.184;5.942;2022-11-04T01:04:32;15;;;13;;
15504;SDS011;7854;52.184;5.942;2022-11-04T01:06:46;14;;;12;;
15504;SDS011;7854;52.184;5.942;2022-11-04T01:09:01;13;;;12;;
15504;SDS011;7854;52.184;5.942;2022-11-04T01:11:15;13;;;11;;
15504;SDS011;7854;52.184;5.942;2022-11-04T01:13:29;12;;;11;;
15504;SDS011;7854;52.184;5.942;2022-11-04T01:15:44;15;;;14;;
15504;SDS011;7854;52.184;5.942;2022-11-04T01:17:59;13;;;12;;
15504;SDS011;7854;52.184;5.942;2022-11-04T01:20:13;13;;;12;;
15504;SDS011;7854;52.184;5.942;2022-11-04T01:22:27;13;;;11;;
15504;SDS011;7854;52.184;5.942;2022-11-04T01:24:42;11;;;11;;
15504;SDS011;7854;52.184;5.942;2022-11-04T01:26:56;15;;;10;;
15504;SDS011;7854;52.184;5.942;2022-11-04T01:29:11;10;;;9;;
15504;SDS011;7854;52.184;5.942;2022-11-04T01:31:26;11;;;10;;
15504;SDS011;7854;52.184;5.942;2022-11-04T01:33:40;10;;;9;;
15504;SDS011;7854;52.184;5.942;2022-11-04T01:35:54;11;;;10;;
15504;SDS011;7854;52.184;5.942;2022-11-04T01:40:23;5;;;5;;
15504;SDS011;7854;52.184;5.942;2022-11-04T01:42:37;4;;;4;;
15504;SDS011;7854;52.184;5.942;2022-11-04T01:44:53;4;;;4;;
15504;SDS011;7854;52.184;5.942;2022-11-04T01:47:07;6;;;5;;
15504;SDS011;7854;52.184;5.942;2022-11-04T01:49:22;3;;;3;;
15504;SDS011;7854;52.184;5.942;2022-11-04T01:51:34;3;;;2;;
15504;SDS011;7854;52.184;5.942;2022-11-04T01:53:48;2;;;2;;
15504;SDS011;7854;52.184;5.942;2022-11-04T01:56:04;3;;;2;;
15504;SDS011;7854;52.184;5.942;2022-11-04T01:58:20;1;;;1;;
15504;SDS011;7854;52.184;5.942;2022-11-04T02:00:32;2;;;2;;
15504;SDS011;7854;52.184;5.942;2022-11-04T02:02:49;1;;;1;;
15504;SDS011;7854;52.184;5.942;2022-11-04T02:05:01;1;;;1;;
15504;SDS011;7854;52.184;5.942;2022-11-04T02:07:15;1;;;1;;
15504;SDS011;7854;52.184;5.942;2022-11-04T02:09:30;1;;;0;;
15504;SDS011;7854;52.184;5.942;2022-11-04T02:11:45;1;;;1;;
15504;SDS011;7854;52.184;5.942;2022-11-04T02:13:59;1;;;1;;
15504;SDS011;7854;52.184;5.942;2022-11-04T02:16:15;2;;;1;;
15504;SDS011;7854;52.184;5.942;2022-11-04T02:18:32;2;;;2;;
15504;SDS011;7854;52.184;5.942;2022-11-04T02:20:47;4;;;2;;
15504;SDS011;7854;52.184;5.942;2022-11-04T02:25:15;2;;;2;;
15504;SDS011;7854;52.184;5.942;2022-11-04T02:27:29;2;;;2;;
15504;SDS011;7854;52.184;5.942;2022-11-04T02:29:43;7;;;2;;
15504;SDS011;7854;52.184;5.942;2022-11-04T02:31:56;3;;;3;;
15504;SDS011;7854;52.184;5.942;2022-11-04T02:34:09;2;;;2;;
15504;SDS011;7854;52.184;5.942;2022-11-04T02:36:25;11;;;3;;
15504;SDS011;7854;52.184;5.942;2022-11-04T02:38:39;3;;;3;;
15504;SDS011;7854;52.184;5.942;2022-11-04T02:40:52;4;;;4;;
15504;SDS011;7854;52.184;5.942;2022-11-04T02:43:08;5;;;5;;
15504;SDS011;7854;52.184;5.942;2022-11-04T02:45:20;4;;;4;;
15504;SDS011;7854;52.184;5.942;2022-11-04T02:47:33;4;;;4;;
15504;SDS011;7854;52.184;5.942;2022-11-04T02:49:49;5;;;5;;
15504;SDS011;7854;52.184;5.942;2022-11-04T02:52:03;6;;;5;;
15504;SDS011;7854;52.184;5.942;2022-11-04T02:54:18;5;;;5;;
15504;SDS011;7854;52.184;5.942;2022-11-04T02:56:31;5;;;4;;
15504;SDS011;7854;52.184;5.942;2022-11-04T02:58:46;4;;;4;;
15504;SDS011;7854;52.184;5.942;2022-11-04T03:01:00;4;;;4;;
15504;SDS011;7854;52.184;5.942;2022-11-04T03:03:15;6;;;6;;
15504;SDS011;7854;52.184;5.942;2022-11-04T03:05:29;6;;;6;;
15504;SDS011;7854;52.184;5.942;2022-11-04T03:07:43;7;;;6;;
15504;SDS011;7854;52.184;5.942;2022-11-04T03:09:59;7;;;6;;
15504;SDS011;7854;52.184;5.942;2022-11-04T03:12:13;6;;;5;;
15504;SDS011;7854;52.184;5.942;2022-11-04T03:14:27;8;;;8;;
15504;SDS011;7854;52.184;5.942;2022-11-04T03:16:42;7;;;6;;
15504;SDS011;7854;52.184;5.942;2022-11-04T03:18:57;8;;;7;;
15504;SDS011;7854;52.184;5.942;2022-11-04T03:21:10;7;;;6;;
15504;SDS011;7854;52.184;5.942;2022-11-04T03:23:24;9;;;8;;
15504;SDS011;7854;52.184;5.942;2022-11-04T03:25:39;7;;;7;;
15504;SDS011;7854;52.184;5.942;2022-11-04T03:27:55;7;;;7;;
15504;SDS011;7854;52.184;5.942;2022-11-04T03:30:08;7;;;6;;
15504;SDS011;7854;52.184;5.942;2022-11-04T03:32:21;8;;;7;;
15504;SDS011;7854;52.184;5.942;2022-11-04T03:34:35;14;;;8;;
15504;SDS011;7854;52.184;5.942;2022-11-04T03:36:49;8;;;7;;
15504;SDS011;7854;52.184;5.942;2022-11-04T03:39:04;20;;;8;;
15504;SDS011;7854;52.184;5.942;2022-11-04T03:41:19;7;;;7;;
15504;SDS011;7854;52.184;5.942;2022-11-04T03:43:33;14;;;10;;
15504;SDS011;7854;52.184;5.942;2022-11-04T03:45:47;7;;;7;;
15504;SDS011;7854;52.184;5.942;2022-11-04T03:48:02;7;;;7;;
15504;SDS011;7854;52.184;5.942;2022-11-04T03:50:17;9;;;8;;
15504;SDS011;7854;52.184;5.942;2022-11-04T03:52:30;8;;;7;;
15504;SDS011;7854;52.184;5.942;2022-11-04T03:54:45;10;;;9;;
15504;SDS011;7854;52.184;5.942;2022-11-04T03:57:04;10;;;10;;
15504;SDS011;7854;52.184;5.942;2022-11-04T03:59:19;8;;;7;;
15504;SDS011;7854;52.184;5.942;2022-11-04T04:01:29;8;;;7;;
15504;SDS011;7854;52.184;5.942;2022-11-04T04:03:44;11;;;10;;
15504;SDS011;7854;52.184;5.942;2022-11-04T04:05:58;13;;;12;;
15504;SDS011;7854;52.184;5.942;2022-11-04T04:08:13;15;;;13;;
15504;SDS011;7854;52.184;5.942;2022-11-04T04:10:27;11;;;10;;
15504;SDS011;7854;52.184;5.942;2022-11-04T04:12:40;15;;;13;;
15504;SDS011;7854;52.184;5.942;2022-11-04T04:14:56;15;;;13;;
15504;SDS011;7854;52.184;5.942;2022-11-04T04:17:11;15;;;13;;
15504;SDS011;7854;52.184;5.942;2022-11-04T04:19:24;24;;;18;;
15504;SDS011;7854;52.184;5.942;2022-11-04T04:21:39;26;;;18;;
15504;SDS011;7854;52.184;5.942;2022-11-04T04:23:51;24;;;20;;
15504;SDS011;7854;52.184;5.942;2022-11-04T04:26:05;39;;;24;;
15504;SDS011;7854;52.184;5.942;2022-11-04T04:28:19;45;;;26;;
15504;SDS011;7854;52.184;5.942;2022-11-04T04:30:34;25;;;21;;
15504;SDS011;7854;52.184;5.942;2022-11-04T04:32:49;33;;;23;;
15504;SDS011;7854;52.184;5.942;2022-11-04T04:35:04;66;;;27;;
15504;SDS011;7854;52.184;5.942;2022-11-04T04:37:18;46;;;28;;
15504;SDS011;7854;52.184;5.942;2022-11-04T04:39:34;34;;;27;;
15504;SDS011;7854;52.184;5.942;2022-11-04T04:41:46;53;;;33;;
15504;SDS011;7854;52.184;5.942;2022-11-04T04:44:01;51;;;28;;
15504;SDS011;7854;52.184;5.942;2022-11-04T04:46:15;44;;;31;;
15504;SDS011;7854;52.184;5.942;2022-11-04T04:48:29;61;;;34;;
15504;SDS011;7854;52.184;5.942;2022-11-04T04:50:44;57;;;33;;
15504;SDS011;7854;52.184;5.942;2022-11-04T04:52:59;67;;;34;;
15504;SDS011;7854;52.184;5.942;2022-11-04T04:55:13;57;;;33;;
15504;SDS011;7854;52.184;5.942;2022-11-04T04:57:27;49;;;33;;
15504;SDS011;7854;52.184;5.942;2022-11-04T04:59:42;49;;;32;;
15504;SDS011;7854;52.184;5.942;2022-11-04T05:01:56;77;;;38;;
15504;SDS011;7854;52.184;5.942;2022-11-04T05:04:11;71;;;37;;
15504;SDS011;7854;52.184;5.942;2022-11-04T05:06:25;47;;;29;;
15504;SDS011;7854;52.184;5.942;2022-11-04T05:08:39;61;;;35;;
15504;SDS011;7854;52.184;5.942;2022-11-04T05:10:54;63;;;37;;
15504;SDS011;7854;52.184;5.942;2022-11-04T05:13:08;53;;;34;;
15504;SDS011;7854;52.184;5.942;2022-11-04T05:15:22;77;;;43;;
15504;SDS011;7854;52.184;5.942;2022-11-04T05:17:36;64;;;39;;
15504;SDS011;7854;52.184;5.942;2022-11-04T05:19:51;100;;;43;;
15504;SDS011;7854;52.184;5.942;2022-11-04T05:22:05;53;;;36;;
15504;SDS011;7854;52.184;5.942;2022-11-04T05:24:20;68;;;36;;
15504;SDS011;7854;52.184;5.942;2022-11-04T05:26:34;66;;;36;;
15504;SDS011;7854;52.184;5.942;2022-11-04T05:28:49;79;;;42;;
15504;SDS011;7854;52.184;5.942;2022-11-04T05:31:03;58;;;38;;
15504;SDS011;7854;52.184;5.942;2022-11-04T05:33:17;77;;;39;;
15504;SDS011;7854;52.184;5.942;2022-11-04T05:35:32;80;;;40;;
15504;SDS011;7854;52.184;5.942;2022-11-04T05:37:46;89;;;42;;
15504;SDS011;7854;52.184;5.942;2022-11-04T05:40:01;75;;;40;;
15504;SDS011;7854;52.184;5.942;2022-11-04T05:42:14;71;;;41;;
15504;SDS011;7854;52.184;5.942;2022-11-04T05:44:28;89;;;45;;
15504;SDS011;7854;52.184;5.942;2022-11-04T05:46:43;53;;;36;;
15504;SDS011;7854;52.184;5.942;2022-11-04T05:48:58;89;;;43;;
15504;SDS011;7854;52.184;5.942;2022-11-04T05:51:12;117;;;49;;
15504;SDS011;7854;52.184;5.942;2022-11-04T05:53:27;58;;;37;;
15504;SDS011;7854;52.184;5.942;2022-11-04T05:55:41;101;;;47;;
15504;SDS011;7854;52.184;5.942;2022-11-04T05:57:55;55;;;37;;
15504;SDS011;7854;52.184;5.942;2022-11-04T06:00:11;79;;;41;;
15504;SDS011;7854;52.184;5.942;2022-11-04T06:02:24;52;;;34;;
15504;SDS011;7854;52.184;5.942;2022-11-04T06:04:39;47;;;35;;
15504;SDS011;7854;52.184;5.942;2022-11-04T06:06:53;48;;;34;;
15504;SDS011;7854;52.184;5.942;2022-11-04T06:09:08;47;;;35;;
15504;SDS011;7854;52.184;5.942;2022-11-04T06:11:23;45;;;31;;
15504;SDS011;7854;52.184;5.942;2022-11-04T06:13:36;75;;;40;;
15504;SDS011;7854;52.184;5.942;2022-11-04T06:15:51;43;;;32;;
15504;SDS011;7854;52.184;5.942;2022-11-04T06:18:06;56;;;34;;
15504;SDS011;7854;52.184;5.942;2022-11-04T06:20:20;58;;;34;;
15504;SDS011;7854;52.184;5.942;2022-11-04T06:22:34;36;;;25;;
15504;SDS011;7854;52.184;5.942;2022-11-04T06:24:49;62;;;33;;
15504;SDS011;7854;52.184;5.942;2022-11-04T06:27:03;46;;;28;;
15504;SDS011;7854;52.184;5.942;2022-11-04T06:29:18;67;;;35;;
15504;SDS011;7854;52.184;5.942;2022-11-04T06:31:32;34;;;24;;
15504;SDS011;7854;52.184;5.942;2022-11-04T06:33:46;40;;;24;;
15504;SDS011;7854;52.184;5.942;2022-11-04T06:36:01;36;;;24;;
15504;SDS011;7854;52.184;5.942;2022-11-04T06:38:15;51;;;28;;
15504;SDS011;7854;52.184;5.942;2022-11-04T06:40:30;31;;;25;;
15504;SDS011;7854;52.184;5.942;2022-11-04T06:42:44;39;;;26;;
15504;SDS011;7854;52.184;5.942;2022-11-04T06:44:58;47;;;31;;
15504;SDS011;7854;52.184;5.942;2022-11-04T06:47:13;40;;;28;;
15504;SDS011;7854;52.184;5.942;2022-11-04T06:49:28;40;;;24;;
15504;SDS011;7854;52.184;5.942;2022-11-04T06:51:42;35;;;25;;
15504;SDS011;7854;52.184;5.942;2022-11-04T06:53:56;50;;;29;;
15504;SDS011;7854;52.184;5.942;2022-11-04T06:56:11;34;;;25;;
15504;SDS011;7854;52.184;5.942;2022-11-04T06:58:25;44;;;26;;
15504;SDS011;7854;52.184;5.942;2022-11-04T07:00:38;61;;;31;;
15504;SDS011;7854;52.184;5.942;2022-11-04T07:02:53;47;;;27;;
15504;SDS011;7854;52.184;5.942;2022-11-04T07:05:08;45;;;25;;
15504;SDS011;7854;52.184;5.942;2022-11-04T07:07:22;30;;;23;;
15504;SDS011;7854;52.184;5.942;2022-11-04T07:09:37;45;;;22;;
15504;SDS011;7854;52.184;5.942;2022-11-04T07:11:51;25;;;21;;
15504;SDS011;7854;52.184;5.942;2022-11-04T07:14:06;27;;;19;;
15504;SDS011;7854;52.184;5.942;2022-11-04T07:16:20;33;;;20;;
15504;SDS011;7854;52.184;5.942;2022-11-04T07:18:34;28;;;20;;
15504;SDS011;7854;52.184;5.942;2022-11-04T07:20:49;31;;;18;;
15504;SDS011;7854;52.184;5.942;2022-11-04T07:23:03;35;;;21;;
15504;SDS011;7854;52.184;5.942;2022-11-04T07:25:18;37;;;22;;
15504;SDS011;7854;52.184;5.942;2022-11-04T07:27:32;28;;;18;;
15504;SDS011;7854;52.184;5.942;2022-11-04T07:29:47;31;;;17;;
15504;SDS011;7854;52.184;5.942;2022-11-04T07:32:01;35;;;20;;
15504;SDS011;7854;52.184;5.942;2022-11-04T07:34:15;32;;;19;;
15504;SDS011;7854;52.184;5.942;2022-11-04T07:36:30;19;;;16;;
15504;SDS011;7854;52.184;5.942;2022-11-04T07:38:44;21;;;18;;
15504;SDS011;7854;52.184;5.942;2022-11-04T07:40:59;40;;;17;;
15504;SDS011;7854;52.184;5.942;2022-11-04T07:43:13;25;;;15;;
15504;SDS011;7854;52.184;5.942;2022-11-04T07:45:28;24;;;13;;
15504;SDS011;7854;52.184;5.942;2022-11-04T07:47:42;18;;;14;;
15504;SDS011;7854;52.184;5.942;2022-11-04T07:49:57;31;;;16;;
15504;SDS011;7854;52.184;5.942;2022-11-04T07:52:11;23;;;16;;
15504;SDS011;7854;52.184;5.942;2022-11-04T07:54:25;18;;;13;;
15504;SDS011;7854;52.184;5.942;2022-11-04T07:56:40;17;;;11;;
15504;SDS011;7854;52.184;5.942;2022-11-04T07:58:54;21;;;14;;
15504;SDS011;7854;52.184;5.942;2022-11-04T08:01:09;25;;;12;;
15504;SDS011;7854;52.184;5.942;2022-11-04T08:03:23;20;;;12;;
15504;SDS011;7854;52.184;5.942;2022-11-04T08:05:38;17;;;12;;
15504;SDS011;7854;52.184;5.942;2022-11-04T08:07:52;23;;;12;;
15504;SDS011;7854;52.184;5.942;2022-11-04T08:10:07;15;;;13;;
15504;SDS011;7854;52.184;5.942;2022-11-04T08:12:21;14;;;11;;
15504;SDS011;7854;52.184;5.942;2022-11-04T08:14:36;11;;;10;;
15504;SDS011;7854;52.184;5.942;2022-11-04T08:16:50;14;;;10;;
15504;SDS011;7854;52.184;5.942;2022-11-04T08:19:04;12;;;11;;
15504;SDS011;7854;52.184;5.942;2022-11-04T08:21:19;12;;;10;;
15504;SDS011;7854;52.184;5.942;2022-11-04T08:23:33;14;;;8;;
15504;SDS011;7854;52.184;5.942;2022-11-04T08:25:48;10;;;9;;
15504;SDS011;7854;52.184;5.942;2022-11-04T08:28:02;12;;;10;;
15504;SDS011;7854;52.184;5.942;2022-11-04T08:30:17;10;;;9;;
15504;SDS011;7854;52.184;5.942;2022-11-04T08:32:31;12;;;9;;
15504;SDS011;7854;52.184;5.942;2022-11-04T08:34:45;16;;;9;;
15504;SDS011;7854;52.184;5.942;2022-11-04T08:37:00;10;;;9;;
15504;SDS011;7854;52.184;5.942;2022-11-04T08:39:14;24;;;9;;
15504;SDS011;7854;52.184;5.942;2022-11-04T08:41:29;10;;;9;;
15504;SDS011;7854;52.184;5.942;2022-11-04T08:43:43;8;;;7;;
15504;SDS011;7854;52.184;5.942;2022-11-04T08:45:57;9;;;8;;
15504;SDS011;7854;52.184;5.942;2022-11-04T08:48:12;17;;;8;;
15504;SDS011;7854;52.184;5.942;2022-11-04T08:50:28;10;;;9;;
15504;SDS011;7854;52.184;5.942;2022-11-04T08:52:41;24;;;10;;
15504;SDS011;7854;52.184;5.942;2022-11-04T08:54:56;13;;;11;;
15504;SDS011;7854;52.184;5.942;2022-11-04T08:57:10;10;;;9;;
15504;SDS011;7854;52.184;5.942;2022-11-04T08:59:24;13;;;11;;
15504;SDS011;7854;52.184;5.942;2022-11-04T09:01:39;14;;;12;;
15504;SDS011;7854;52.184;5.942;2022-11-04T09:03:53;10;;;9;;
15504;SDS011;7854;52.184;5.942;2022-11-04T09:06:09;21;;;13;;
15504;SDS011;7854;52.184;5.942;2022-11-04T09:08:22;13;;;11;;
15504;SDS011;7854;52.184;5.942;2022-11-04T09:10:39;15;;;12;;
15504;SDS011;7854;52.184;5.942;2022-11-04T09:12:51;20;;;12;;
15504;SDS011;7854;52.184;5.942;2022-11-04T09:15:06;11;;;10;;
15504;SDS011;7854;52.184;5.942;2022-11-04T09:17:20;13;;;11;;
15504;SDS011;7854;52.184;5.942;2022-11-04T09:19:34;11;;;10;;
15504;SDS011;7854;52.184;5.942;2022-11-04T09:21:49;18;;;11;;
15504;SDS011;7854;52.184;5.942;2022-11-04T09:24:02;13;;;10;;
15504;SDS011;7854;52.184;5.942;2022-11-04T09:26:17;14;;;10;;
15504;SDS011;7854;52.184;5.942;2022-11-04T09:30:45;11;;;8;;
15504;SDS011;7854;52.184;5.942;2022-11-04T09:33:00;9;;;8;;
15504;SDS011;7854;52.184;5.942;2022-11-04T09:35:15;10;;;9;;
15504;SDS011;7854;52.184;5.942;2022-11-04T09:37:29;7;;;7;;
15504;SDS011;7854;52.184;5.942;2022-11-04T09:39:45;10;;;9;;
15504;SDS011;7854;52.184;5.942;2022-11-04T09:42:01;10;;;9;;
15504;SDS011;7854;52.184;5.942;2022-11-04T09:44:15;11;;;9;;
15504;SDS011;7854;52.184;5.942;2022-11-04T09:46:27;15;;;10;;
15504;SDS011;7854;52.184;5.942;2022-11-04T09:48:42;12;;;11;;
15504;SDS011;7854;52.184;5.942;2022-11-04T09:50:56;15;;;12;;
15504;SDS011;7854;52.184;5.942;2022-11-04T09:53:13;12;;;10;;
15504;SDS011;7854;52.184;5.942;2022-11-04T09:55:26;11;;;11;;
15504;SDS011;7854;52.184;5.942;2022-11-04T09:57:39;11;;;10;;
15504;SDS011;7854;52.184;5.942;2022-11-04T09:59:53;14;;;11;;
15504;SDS011;7854;52.184;5.942;2022-11-04T10:02:17;19;;;13;;
15504;SDS011;7854;52.184;5.942;2022-11-04T10:04:24;13;;;12;;
15504;SDS011;7854;52.184;5.942;2022-11-04T10:06:39;16;;;13;;
15504;SDS011;7854;52.184;5.942;2022-11-04T10:08:55;14;;;12;;
15504;SDS011;7854;52.184;5.942;2022-11-04T10:11:07;19;;;14;;
15504;SDS011;7854;52.184;5.942;2022-11-04T10:13:23;13;;;11;;
15504;SDS011;7854;52.184;5.942;2022-11-04T10:15:45;16;;;14;;
15504;SDS011;7854;52.184;5.942;2022-11-04T10:17:53;20;;;13;;
15504;SDS011;7854;52.184;5.942;2022-11-04T10:20:11;15;;;13;;
15504;SDS011;7854;52.184;5.942;2022-11-04T10:22:20;16;;;14;;
15504;SDS011;7854;52.184;5.942;2022-11-04T10:24:40;14;;;12;;
15504;SDS011;7854;52.184;5.942;2022-11-04T10:26:48;16;;;13;;
15504;SDS011;7854;52.184;5.942;2022-11-04T10:29:01;14;;;12;;
15504;SDS011;7854;52.184;5.942;2022-11-04T10:31:17;13;;;11;;
15504;SDS011;7854;52.184;5.942;2022-11-04T10:33:31;16;;;13;;
15504;SDS011;7854;52.184;5.942;2022-11-04T10:35:45;12;;;11;;
15504;SDS011;7854;52.184;5.942;2022-11-04T10:38:00;11;;;10;;
15504;SDS011;7854;52.184;5.942;2022-11-04T10:40:15;14;;;11;;
15504;SDS011;7854;52.184;5.942;2022-11-04T10:42:27;13;;;11;;
15504;SDS011;7854;52.184;5.942;2022-11-04T10:44:42;11;;;10;;
15504;SDS011;7854;52.184;5.942;2022-11-04T10:46:59;11;;;10;;
15504;SDS011;7854;52.184;5.942;2022-11-04T10:49:20;11;;;10;;
15504;SDS011;7854;52.184;5.942;2022-11-04T10:51:26;12;;;11;;
15504;SDS011;7854;52.184;5.942;2022-11-04T10:53:40;11;;;10;;
15504;SDS011;7854;52.184;5.942;2022-11-04T10:55:58;13;;;12;;
15504;SDS011;7854;52.184;5.942;2022-11-04T10:58:11;12;;;11;;
15504;SDS011;7854;52.184;5.942;2022-11-04T11:00:33;11;;;10;;
15504;SDS011;7854;52.184;5.942;2022-11-04T11:02:42;17;;;11;;
15504;SDS011;7854;52.184;5.942;2022-11-04T11:07:08;19;;;10;;
15504;SDS011;7854;52.184;5.942;2022-11-04T11:09:22;13;;;11;;
15504;SDS011;7854;52.184;5.942;2022-11-04T11:11:37;10;;;10;;
15504;SDS011;7854;52.184;5.942;2022-11-04T11:13:50;13;;;12;;
15504;SDS011;7854;52.184;5.942;2022-11-04T11:16:06;14;;;12;;
15504;SDS011;7854;52.184;5.942;2022-11-04T11:18:19;16;;;12;;
15504;SDS011;7854;52.184;5.942;2022-11-04T11:20:33;14;;;12;;
15504;SDS011;7854;52.184;5.942;2022-11-04T11:22:48;14;;;13;;
15504;SDS011;7854;52.184;5.942;2022-11-04T11:27:16;17;;;15;;
15504;SDS011;7854;52.184;5.942;2022-11-04T11:29:31;15;;;14;;
15504;SDS011;7854;52.184;5.942;2022-11-04T11:31:46;19;;;13;;
15504;SDS011;7854;52.184;5.942;2022-11-04T11:34:01;16;;;13;;
15504;SDS011;7854;52.184;5.942;2022-11-04T11:36:15;20;;;15;;
15504;SDS011;7854;52.184;5.942;2022-11-04T11:38:29;17;;;13;;
15504;SDS011;7854;52.184;5.942;2022-11-04T11:40:44;16;;;15;;
15504;SDS011;7854;52.184;5.942;2022-11-04T11:42:58;17;;;15;;
15504;SDS011;7854;52.184;5.942;2022-11-04T11:45:14;21;;;14;;
15504;SDS011;7854;52.184;5.942;2022-11-04T11:47:33;17;;;15;;
15504;SDS011;7854;52.184;5.942;2022-11-04T11:49:40;16;;;15;;
15504;SDS011;7854;52.184;5.942;2022-11-04T11:51:55;18;;;15;;
15504;SDS011;7854;52.184;5.942;2022-11-04T11:54:13;24;;;17;;
15504;SDS011;7854;52.184;5.942;2022-11-04T11:56:25;19;;;17;;
15504;SDS011;7854;52.184;5.942;2022-11-04T11:58:40;19;;;16;;
15504;SDS011;7854;52.184;5.942;2022-11-04T12:00:53;23;;;19;;
15504;SDS011;7854;52.184;5.942;2022-11-04T12:03:10;25;;;18;;
15504;SDS011;7854;52.184;5.942;2022-11-04T12:05:22;29;;;19;;
15504;SDS011;7854;52.184;5.942;2022-11-04T12:07:37;20;;;18;;
15504;SDS011;7854;52.184;5.942;2022-11-04T12:09:51;20;;;16;;
15504;SDS011;7854;52.184;5.942;2022-11-04T12:12:09;18;;;16;;
15504;SDS011;7854;52.184;5.942;2022-11-04T12:14:21;18;;;16;;
15504;SDS011;7854;52.184;5.942;2022-11-04T12:16:36;20;;;17;;
15504;SDS011;7854;52.184;5.942;2022-11-04T12:18:52;19;;;17;;
15504;SDS011;7854;52.184;5.942;2022-11-04T12:21:03;23;;;17;;
15504;SDS011;7854;52.184;5.942;2022-11-04T12:25:33;22;;;16;;
15504;SDS011;7854;52.184;5.942;2022-11-04T12:27:47;18;;;15;;
15504;SDS011;7854;52.184;5.942;2022-11-04T12:30:02;17;;;15;;
15504;SDS011;7854;52.184;5.942;2022-11-04T12:32:18;18;;;16;;
15504;SDS011;7854;52.184;5.942;2022-11-04T12:34:33;25;;;17;;
15504;SDS011;7854;52.184;5.942;2022-11-04T12:36:48;17;;;16;;
15504;SDS011;7854;52.184;5.942;2022-11-04T12:39:03;20;;;16;;
15504;SDS011;7854;52.184;5.942;2022-11-04T12:41:14;19;;;17;;
15504;SDS011;7854;52.184;5.942;2022-11-04T12:43:28;18;;;16;;
15504;SDS011;7854;52.184;5.942;2022-11-04T12:45:44;19;;;17;;
15504;SDS011;7854;52.184;5.942;2022-11-04T12:47:58;18;;;16;;
15504;SDS011;7854;52.184;5.942;2022-11-04T12:50:14;28;;;16;;
15504;SDS011;7854;52.184;5.942;2022-11-04T12:52:29;15;;;14;;
15504;SDS011;7854;52.184;5.942;2022-11-04T12:54:44;16;;;14;;
15504;SDS011;7854;52.184;5.942;2022-11-04T12:56:57;15;;;14;;
15504;SDS011;7854;52.184;5.942;2022-11-04T12:59:21;18;;;14;;
15504;SDS011;7854;52.184;5.942;2022-11-04T13:01:24;15;;;14;;
15504;SDS011;7854;52.184;5.942;2022-11-04T13:03:40;25;;;14;;
15504;SDS011;7854;52.184;5.942;2022-11-04T13:05:52;15;;;13;;
15504;SDS011;7854;52.184;5.942;2022-11-04T13:08:09;13;;;12;;
15504;SDS011;7854;52.184;5.942;2022-11-04T13:10:21;12;;;11;;
15504;SDS011;7854;52.184;5.942;2022-11-04T13:12:35;12;;;11;;
15504;SDS011;7854;52.184;5.942;2022-11-04T13:14:50;14;;;12;;
15504;SDS011;7854;52.184;5.942;2022-11-04T13:17:04;12;;;12;;
15504;SDS011;7854;52.184;5.942;2022-11-04T13:19:20;23;;;11;;
15504;SDS011;7854;52.184;5.942;2022-11-04T13:21:34;10;;;9;;
15504;SDS011;7854;52.184;5.942;2022-11-04T13:23:50;13;;;9;;
15504;SDS011;7854;52.184;5.942;2022-11-04T13:26:02;9;;;8;;
15504;SDS011;7854;52.184;5.942;2022-11-04T13:28:16;9;;;9;;
15504;SDS011;7854;52.184;5.942;2022-11-04T13:30:32;9;;;9;;
15504;SDS011;7854;52.184;5.942;2022-11-04T13:32:46;15;;;10;;
15504;SDS011;7854;52.184;5.942;2022-11-04T13:35:00;9;;;9;;
15504;SDS011;7854;52.184;5.942;2022-11-04T13:37:16;10;;;7;;
15504;SDS011;7854;52.184;5.942;2022-11-04T13:39:29;10;;;9;;
15504;SDS011;7854;52.184;5.942;2022-11-04T13:41:50;12;;;10;;
15504;SDS011;7854;52.184;5.942;2022-11-04T13:43:58;11;;;9;;
15504;SDS011;7854;52.184;5.942;2022-11-04T13:46:16;9;;;8;;
15504;SDS011;7854;52.184;5.942;2022-11-04T13:48:26;9;;;8;;
15504;SDS011;7854;52.184;5.942;2022-11-04T13:50:40;9;;;8;;
15504;SDS011;7854;52.184;5.942;2022-11-04T13:52:55;10;;;9;;
15504;SDS011;7854;52.184;5.942;2022-11-04T13:55:15;25;;;9;;
15504;SDS011;7854;52.184;5.942;2022-11-04T13:57:24;11;;;10;;
15504;SDS011;7854;52.184;5.942;2022-11-04T13:59:38;8;;;8;;
15504;SDS011;7854;52.184;5.942;2022-11-04T14:02:14;10;;;9;;
15504;SDS011;7854;52.184;5.942;2022-11-04T14:04:34;8;;;8;;
15504;SDS011;7854;52.184;5.942;2022-11-04T14:08:36;12;;;10;;
15504;SDS011;7854;52.184;5.942;2022-11-04T14:11:05;10;;;9;;
15504;SDS011;7854;52.184;5.942;2022-11-04T14:13:39;10;;;8;;
15504;SDS011;7854;52.184;5.942;2022-11-04T14:15:57;9;;;8;;
15504;SDS011;7854;52.184;5.942;2022-11-04T14:19:52;10;;;9;;
15504;SDS011;7854;52.184;5.942;2022-11-04T14:22:05;13;;;7;;
15504;SDS011;7854;52.184;5.942;2022-11-04T14:24:16;9;;;8;;
15504;SDS011;7854;52.184;5.942;2022-11-04T14:26:39;8;;;7;;
15504;SDS011;7854;52.184;5.942;2022-11-04T14:28:45;9;;;8;;
15504;SDS011;7854;52.184;5.942;2022-11-04T14:30:59;9;;;8;;
15504;SDS011;7854;52.184;5.942;2022-11-04T14:33:30;7;;;7;;
15504;SDS011;7854;52.184;5.942;2022-11-04T14:35:28;10;;;7;;
15504;SDS011;7854;52.184;5.942;2022-11-04T14:37:42;13;;;7;;
15504;SDS011;7854;52.184;5.942;2022-11-04T14:39:56;9;;;8;;
15504;SDS011;7854;52.184;5.942;2022-11-04T14:42:11;7;;;6;;
15504;SDS011;7854;52.184;5.942;2022-11-04T14:44:29;8;;;7;;
15504;SDS011;7854;52.184;5.942;2022-11-04T14:46:41;8;;;7;;
15504;SDS011;7854;52.184;5.942;2022-11-04T14:48:54;4;;;4;;
15504;SDS011;7854;52.184;5.942;2022-11-04T14:51:16;5;;;4;;
15504;SDS011;7854;52.184;5.942;2022-11-04T14:53:24;6;;;3;;
15504;SDS011;7854;52.184;5.942;2022-11-04T14:55:37;4;;;3;;
15504;SDS011;7854;52.184;5.942;2022-11-04T14:57:52;2;;;2;;
15504;SDS011;7854;52.184;5.942;2022-11-04T15:00:26;2;;;2;;
15504;SDS011;7854;52.184;5.942;2022-11-04T15:02:22;3;;;1;;